createdAt,value
2022-08-23T00:00:21.771Z,89.025879
2022-08-23T00:01:31.447Z,89.331055
2022-08-23T00:02:41.175Z,89.276123
2022-08-23T00:03:50.779Z,89.84375
2022-08-23T00:05:08.594Z,90.655518
2022-08-23T00:06:10.101Z,90.594482
2022-08-23T00:07:19.779Z,89.880371
2022-08-23T00:08:28.528Z,89.984131
2022-08-23T00:09:38.200Z,90.899658
2022-08-23T00:10:46.860Z,91.607666
2022-08-23T00:11:55.509Z,91.912842
2022-08-23T00:13:05.178Z,91.815186
2022-08-23T00:14:13.853Z,91.40625
2022-08-23T00:15:22.524Z,91.40625
2022-08-23T00:16:30.158Z,91.204834
2022-08-23T00:17:38.827Z,91.912842
2022-08-23T00:18:47.686Z,91.51001
2022-08-23T00:19:56.147Z,91.40625
2022-08-23T00:21:05.821Z,91.204834
2022-08-23T00:22:13.463Z,91.40625
2022-08-23T00:23:21.094Z,90.698242
2022-08-23T00:24:30.762Z,90.490723
2022-08-23T00:25:40.463Z,90.289307
2022-08-23T00:26:48.119Z,90.289307
2022-08-23T00:27:57.778Z,90.289307
2022-08-23T00:29:06.412Z,90.393066
2022-08-23T00:30:16.075Z,90.490723
2022-08-23T00:31:23.749Z,90.698242
2022-08-23T00:32:32.413Z,90.594482
2022-08-23T00:33:42.064Z,90.698242
2022-08-23T00:34:50.701Z,90.795898
2022-08-23T00:35:59.374Z,91.204834
2022-08-23T00:37:08.047Z,91.101074
2022-08-23T00:38:33.555Z,90.899658
2022-08-23T00:39:28.322Z,91.101074
2022-08-23T00:40:35.986Z,91.101074
2022-08-23T00:41:43.620Z,91.204834
2022-08-23T00:42:53.307Z,91.30249
2022-08-23T00:44:02.967Z,91.30249
2022-08-23T00:45:11.639Z,91.30249
2022-08-23T00:46:20.300Z,91.448975
2022-08-23T00:47:29.955Z,91.552734
2022-08-23T00:48:39.647Z,91.650391
2022-08-23T00:49:47.315Z,91.650391
2022-08-23T00:50:56.004Z,91.75415
2022-08-23T00:52:05.694Z,92.059326
2022-08-23T00:53:14.359Z,92.059326
2022-08-23T00:54:23.171Z,91.955566
2022-08-23T00:55:31.852Z,91.955566
2022-08-23T00:56:40.507Z,91.85791
2022-08-23T00:57:50.159Z,91.85791
2022-08-23T00:58:58.828Z,91.85791
2022-08-23T01:00:07.490Z,91.85791
2022-08-23T01:01:17.777Z,92.059326
2022-08-23T01:02:26.794Z,92.260742
2022-08-23T01:03:38.444Z,92.059326
2022-08-23T01:04:47.107Z,92.163086
2022-08-23T01:05:55.779Z,92.260742
2022-08-23T01:07:05.448Z,92.407227
2022-08-23T01:08:13.103Z,92.407227
2022-08-23T01:09:22.751Z,92.608643
2022-08-23T01:10:32.423Z,92.816162
2022-08-23T01:11:41.150Z,93.218994
2022-08-23T01:12:49.831Z,93.121338
2022-08-23T01:13:58.483Z,93.52417
2022-08-23T01:15:07.123Z,93.731689
2022-08-23T01:16:16.782Z,93.426514
2022-08-23T01:17:25.491Z,93.829346
2022-08-23T01:18:33.137Z,93.829346
2022-08-23T01:19:41.810Z,93.829346
2022-08-23T01:20:50.467Z,93.829346
2022-08-23T01:21:59.090Z,94.036865
2022-08-23T01:23:07.781Z,94.439697
2022-08-23T01:24:18.145Z,94.543457
2022-08-23T01:25:28.050Z,94.543457
2022-08-23T01:26:36.710Z,94.238281
2022-08-23T01:27:45.373Z,94.238281
2022-08-23T01:28:55.082Z,94.641113
2022-08-23T01:30:03.732Z,94.641113
2022-08-23T01:31:12.403Z,94.641113
2022-08-23T01:32:21.073Z,94.384766
2022-08-23T01:33:31.734Z,94.586182
2022-08-23T01:34:44.852Z,94.689941
2022-08-23T01:35:52.052Z,94.787598
2022-08-23T01:37:00.705Z,94.787598
2022-08-23T01:38:10.374Z,94.934082
2022-08-23T01:39:19.023Z,95.141602
2022-08-23T01:40:28.729Z,95.037842
2022-08-23T01:41:37.408Z,95.343018
2022-08-23T01:42:46.109Z,95.343018
2022-08-23T01:43:55.777Z,95.239258
2022-08-23T01:45:03.409Z,95.446777
2022-08-23T01:46:11.078Z,95.648193
2022-08-23T01:47:20.751Z,95.751953
2022-08-23T01:48:29.402Z,95.849609
2022-08-23T01:49:38.061Z,95.751953
2022-08-23T01:50:46.721Z,95.953369
2022-08-23T01:51:55.381Z,96.057129
2022-08-23T01:53:05.036Z,96.057129
2022-08-23T01:54:12.686Z,95.849609
2022-08-23T01:55:20.342Z,95.751953
2022-08-23T01:56:38.469Z,95.544434
2022-08-23T01:57:39.760Z,95.239258
2022-08-23T01:58:49.407Z,95.184326
2022-08-23T01:59:58.062Z,95.080566
2022-08-23T02:01:06.709Z,95.080566
2022-08-23T02:02:16.398Z,95.489502
2022-08-23T02:03:24.082Z,95.532227
2022-08-23T02:04:32.752Z,96.350098
2022-08-23T02:05:42.463Z,96.655273
2022-08-23T02:06:51.073Z,96.655273
2022-08-23T02:07:59.845Z,96.759033
2022-08-23T02:09:15.996Z,96.856689
2022-08-23T02:10:18.034Z,96.856689
2022-08-23T02:11:27.721Z,96.759033
2022-08-23T02:12:35.377Z,96.551514
2022-08-23T02:13:45.044Z,96.759033
2022-08-23T02:14:52.813Z,96.856689
2022-08-23T02:16:00.454Z,96.856689
2022-08-23T02:17:11.168Z,96.856689
2022-08-23T02:18:19.815Z,97.314453
2022-08-23T02:19:29.471Z,97.619629
2022-08-23T02:20:39.158Z,97.924805
2022-08-23T02:21:48.819Z,98.126221
2022-08-23T02:22:58.487Z,98.022461
2022-08-23T02:24:07.134Z,97.875977
2022-08-23T02:25:14.779Z,97.619629
2022-08-23T02:26:30.902Z,97.821045
2022-08-23T02:27:34.078Z,98.22998
2022-08-23T02:28:43.783Z,98.126221
2022-08-23T02:29:53.421Z,97.821045
2022-08-23T02:31:02.093Z,97.717285
2022-08-23T02:32:11.829Z,97.619629
2022-08-23T02:33:20.419Z,97.515869
2022-08-23T02:34:43.108Z,97.515869
2022-08-23T02:35:53.884Z,97.460938
2022-08-23T02:37:02.647Z,97.558594
2022-08-23T02:38:11.440Z,97.662354
2022-08-23T02:39:21.230Z,97.558594
2022-08-23T02:40:29.984Z,97.662354
2022-08-23T02:41:39.754Z,98.114014
2022-08-23T02:42:47.503Z,98.114014
2022-08-23T02:43:55.267Z,98.114014
2022-08-23T02:45:05.031Z,98.217773
2022-08-23T02:46:14.798Z,98.522949
2022-08-23T02:47:23.554Z,99.035645
2022-08-23T02:48:32.317Z,99.542236
2022-08-23T02:49:41.138Z,99.749756
2022-08-23T02:50:49.906Z,99.700928
2022-08-23T02:51:57.655Z,99.597168
2022-08-23T02:53:05.417Z,99.499512
2022-08-23T02:54:15.197Z,99.395752
2022-08-23T02:55:24.979Z,99.291992
2022-08-23T02:56:33.742Z,99.194336
2022-08-23T02:57:42.514Z,99.194336
2022-08-23T02:58:54.116Z,99.194336
2022-08-23T03:00:02.082Z,99.090576
2022-08-23T03:01:11.002Z,98.7854
2022-08-23T03:02:20.796Z,98.480225
2022-08-23T03:03:30.546Z,98.272705
2022-08-23T03:04:40.292Z,98.272705
2022-08-23T03:05:49.089Z,98.217773
2022-08-23T03:06:56.885Z,98.016357
2022-08-23T03:08:05.695Z,98.016357
2022-08-23T03:09:15.458Z,98.425293
2022-08-23T03:10:24.217Z,98.522949
2022-08-23T03:11:31.962Z,98.468018
2022-08-23T03:12:41.741Z,98.773193
2022-08-23T03:13:51.517Z,99.078369
2022-08-23T03:15:00.279Z,99.487305
2022-08-23T03:16:10.045Z,99.89624
2022-08-23T03:17:18.835Z,99.993896
2022-08-23T03:18:28.629Z,99.993896
2022-08-23T03:19:37.410Z,99.993896
2022-08-23T03:20:44.181Z,99.993896
2022-08-23T03:21:53.933Z,99.993896
2022-08-23T03:23:02.695Z,99.993896
2022-08-23T03:24:11.509Z,99.993896
2022-08-23T03:25:20.288Z,99.993896
2022-08-23T03:26:29.032Z,99.993896
2022-08-23T03:27:44.656Z,99.993896
2022-08-23T03:28:49.559Z,99.993896
2022-08-23T03:29:58.347Z,99.993896
2022-08-23T03:31:08.085Z,99.993896
2022-08-23T03:32:17.753Z,99.993896
2022-08-23T03:33:27.400Z,99.993896
2022-08-23T03:34:36.053Z,99.993896
2022-08-23T03:35:44.708Z,99.993896
2022-08-23T03:36:54.370Z,99.993896
2022-08-23T03:38:03.239Z,99.993896
2022-08-23T03:39:09.729Z,99.993896
2022-08-23T03:40:19.435Z,99.993896
2022-08-23T03:41:28.043Z,99.993896
2022-08-23T03:42:37.728Z,99.993896
2022-08-23T03:43:47.394Z,99.993896
2022-08-23T03:45:00.703Z,99.993896
2022-08-23T03:46:07.677Z,99.993896
2022-08-23T03:47:15.362Z,99.993896
2022-08-23T03:48:24.011Z,99.993896
2022-08-23T03:49:33.671Z,99.993896
2022-08-23T03:50:42.359Z,99.993896
2022-08-23T03:51:51.011Z,99.993896
2022-08-23T03:52:59.723Z,99.993896
2022-08-23T03:54:08.378Z,99.993896
2022-08-23T03:55:18.045Z,99.993896
2022-08-23T03:56:26.700Z,99.993896
2022-08-23T03:57:34.376Z,99.993896
2022-08-23T03:58:44.055Z,99.993896
2022-08-23T03:59:52.711Z,99.993896
2022-08-23T04:01:01.392Z,99.993896
2022-08-23T04:02:11.135Z,99.993896
2022-08-23T04:03:19.702Z,99.993896
2022-08-23T04:04:29.495Z,99.993896
2022-08-23T04:05:38.154Z,99.993896
2022-08-23T04:06:46.859Z,99.993896
2022-08-23T04:07:56.515Z,99.993896
2022-08-23T04:09:05.160Z,99.993896
2022-08-23T04:10:13.863Z,99.993896
2022-08-23T04:11:23.514Z,99.993896
2022-08-23T04:12:32.186Z,99.993896
2022-08-23T04:13:41.848Z,99.993896
2022-08-23T04:14:51.517Z,99.993896
2022-08-23T04:16:01.189Z,99.908447
2022-08-23T04:17:07.849Z,99.908447
2022-08-23T04:18:15.509Z,99.804688
2022-08-23T04:19:24.164Z,99.804688
2022-08-23T04:20:34.828Z,99.853516
2022-08-23T04:21:43.520Z,99.908447
2022-08-23T04:22:52.204Z,99.951172
2022-08-23T04:24:00.875Z,99.993896
2022-08-23T04:25:33.129Z,99.993896
2022-08-23T04:26:21.187Z,99.993896
2022-08-23T04:27:29.867Z,99.993896
2022-08-23T04:28:39.535Z,99.993896
2022-08-23T04:29:48.189Z,99.993896
2022-08-23T04:30:57.861Z,99.993896
2022-08-23T04:32:09.753Z,99.993896
2022-08-23T04:33:18.358Z,99.993896
2022-08-23T04:34:28.621Z,99.908447
2022-08-23T04:35:34.448Z,99.993896
2022-08-23T04:36:44.840Z,99.908447
2022-08-23T04:37:53.747Z,99.804688
2022-08-23T04:39:02.444Z,99.700928
2022-08-23T04:40:12.153Z,99.700928
2022-08-23T04:41:20.774Z,99.597168
2022-08-23T04:42:29.423Z,99.597168
2022-08-23T04:43:38.084Z,99.597168
2022-08-23T04:44:46.757Z,99.597168
2022-08-23T04:45:54.392Z,99.700928
2022-08-23T04:47:04.063Z,99.700928
2022-08-23T04:48:12.693Z,99.700928
2022-08-23T04:49:22.385Z,99.499512
2022-08-23T04:50:33.053Z,99.395752
2022-08-23T04:51:41.706Z,99.291992
2022-08-23T04:52:52.339Z,99.194336
2022-08-23T04:54:00.989Z,99.090576
2022-08-23T04:55:08.642Z,98.88916
2022-08-23T04:56:18.336Z,98.88916
2022-08-23T04:57:27.081Z,98.7854
2022-08-23T04:58:35.695Z,98.638916
2022-08-23T04:59:44.359Z,98.638916
2022-08-23T05:00:54.052Z,98.535156
2022-08-23T05:02:02.683Z,98.535156
2022-08-23T05:03:12.349Z,98.431396
2022-08-23T05:04:19.993Z,98.327637
2022-08-23T05:05:29.656Z,98.22998
2022-08-23T05:06:38.292Z,98.22998
2022-08-23T05:07:47.027Z,98.022461
2022-08-23T05:08:55.695Z,97.924805
2022-08-23T05:10:04.338Z,97.875977
2022-08-23T05:11:14.013Z,97.875977
2022-08-23T05:12:22.924Z,97.77832
2022-08-23T05:13:30.341Z,97.674561
2022-08-23T05:14:39.975Z,97.467041
2022-08-23T05:15:50.626Z,97.369385
2022-08-23T05:17:00.271Z,97.265625
2022-08-23T05:18:08.928Z,97.161865
2022-08-23T05:19:17.602Z,96.960449
2022-08-23T05:20:27.282Z,96.759033
2022-08-23T05:21:34.937Z,96.612549
2022-08-23T05:22:42.590Z,96.612549
2022-08-23T05:23:54.626Z,96.612549
2022-08-23T05:25:01.887Z,96.508789
2022-08-23T05:26:10.542Z,96.057129
2022-08-23T05:27:20.209Z,95.751953
2022-08-23T05:28:28.879Z,95.751953
2022-08-23T05:29:38.542Z,95.648193
2022-08-23T05:30:48.213Z,95.544434
2022-08-23T05:31:58.848Z,95.648193
2022-08-23T05:33:08.512Z,95.446777
2022-08-23T05:34:20.278Z,95.544434
2022-08-23T05:35:26.824Z,95.806885
2022-08-23T05:36:36.509Z,96.112061
2022-08-23T05:37:46.142Z,95.703125
2022-08-23T05:38:55.823Z,95.300293
2022-08-23T05:40:03.538Z,94.787598
2022-08-23T05:41:11.125Z,94.238281
2022-08-23T05:42:20.817Z,94.134521
2022-08-23T05:43:30.469Z,93.829346
2022-08-23T05:44:39.119Z,93.62793
2022-08-23T05:45:48.797Z,93.829346
2022-08-23T05:46:58.439Z,93.933105
2022-08-23T05:48:08.111Z,93.988037
2022-08-23T05:49:17.577Z,93.786621
2022-08-23T05:50:25.389Z,93.890381
2022-08-23T05:51:36.050Z,93.280029
2022-08-23T05:52:47.844Z,92.773438
2022-08-23T05:53:55.360Z,92.321777
2022-08-23T05:55:05.033Z,91.815186
2022-08-23T05:56:13.696Z,91.101074
2022-08-23T05:57:23.347Z,91.564941
2022-08-23T05:58:32.030Z,91.564941
2022-08-23T05:59:39.731Z,91.467285
2022-08-23T06:00:49.432Z,91.05835
2022-08-23T06:01:59.044Z,91.668701
2022-08-23T06:03:08.709Z,91.05835
2022-08-23T06:04:18.385Z,91.162109
2022-08-23T06:05:27.170Z,91.564941
2022-08-23T06:06:37.872Z,90.753174
2022-08-23T06:07:45.499Z,90.960693
2022-08-23T06:08:53.193Z,90.447998
2022-08-23T06:10:02.860Z,90.612793
2022-08-23T06:11:11.651Z,90.405273
2022-08-23T06:12:21.315Z,90.002441
2022-08-23T06:13:30.975Z,89.49585
2022-08-23T06:14:39.643Z,89.190674
2022-08-23T06:15:48.307Z,89.453125
2022-08-23T06:16:58.017Z,89.349365
2022-08-23T06:18:07.675Z,90.063477
2022-08-23T06:19:15.332Z,89.855957
2022-08-23T06:20:23.036Z,89.550781
2022-08-23T06:21:32.674Z,89.044189
2022-08-23T06:22:43.352Z,89.007568
2022-08-23T06:23:52.025Z,88.598633
2022-08-23T06:25:00.671Z,88.195801
2022-08-23T06:26:09.339Z,88.598633
2022-08-23T06:27:19.015Z,89.105225
2022-08-23T06:28:28.722Z,88.702393
2022-08-23T06:29:38.365Z,88.555908
2022-08-23T06:30:48.075Z,88.555908
2022-08-23T06:31:57.664Z,88.555908
2022-08-23T06:33:07.323Z,88.458252
2022-08-23T06:34:15.999Z,88.818359
2022-08-23T06:35:33.057Z,88.616943
2022-08-23T06:36:36.312Z,88.214111
2022-08-23T06:37:44.975Z,87.969971
2022-08-23T06:38:52.676Z,88.067627
2022-08-23T06:40:02.422Z,87.969971
2022-08-23T06:41:11.022Z,87.866211
2022-08-23T06:42:37.798Z,87.823486
2022-08-23T06:43:30.340Z,87.927246
2022-08-23T06:44:39.002Z,87.62207
2022-08-23T06:45:50.177Z,87.280273
2022-08-23T06:46:59.435Z,87.37793
2022-08-23T06:48:06.980Z,87.988281
2022-08-23T06:49:17.667Z,87.945557
2022-08-23T06:50:27.350Z,86.425781
2022-08-23T06:51:38.023Z,86.633301
2022-08-23T06:52:46.684Z,86.2854
2022-08-23T06:53:55.327Z,85.882568
2022-08-23T06:55:07.793Z,85.479736
2022-08-23T06:56:16.607Z,85.742188
2022-08-23T06:57:24.322Z,85.339355
2022-08-23T06:58:33.987Z,85.095215
2022-08-23T06:59:43.633Z,84.893799
2022-08-23T07:00:57.268Z,84.991455
2022-08-23T07:02:03.035Z,84.246826
2022-08-23T07:03:11.719Z,83.642578
2022-08-23T07:04:21.289Z,83.905029
2022-08-23T07:05:29.951Z,82.653809
2022-08-23T07:06:38.655Z,80.499268
2022-08-23T07:07:48.318Z,79.962158
2022-08-23T07:08:58.014Z,79.919434
2022-08-23T07:10:06.715Z,78.814697
2022-08-23T07:11:16.375Z,79.315186
2022-08-23T07:12:26.056Z,79.35791
2022-08-23T07:13:35.830Z,80.059814
2022-08-23T07:14:45.654Z,79.718018
2022-08-23T07:15:53.332Z,77.429199
2022-08-23T07:17:02.991Z,74.578857
2022-08-23T07:18:13.534Z,73.742676
2022-08-23T07:19:20.309Z,73.339844
2022-08-23T07:20:30.030Z,73.907471
2022-08-23T07:21:38.692Z,73.205566
2022-08-23T07:22:48.399Z,72.900391
2022-08-23T07:23:56.065Z,73.87085
2022-08-23T07:25:05.743Z,73.4375
2022-08-23T07:26:14.453Z,70.794678
2022-08-23T07:27:23.123Z,70.056152
2022-08-23T07:28:32.909Z,70.6604
2022-08-23T07:29:41.694Z,70.623779
2022-08-23T07:30:50.356Z,70.092773
2022-08-23T07:32:00.347Z,67.29126
2022-08-23T07:33:07.801Z,67.254639
2022-08-23T07:34:16.434Z,66.75415
2022-08-23T07:35:27.104Z,67.321777
2022-08-23T07:36:35.940Z,65.325928
2022-08-23T07:37:44.435Z,65.826416
2022-08-23T07:38:53.077Z,66.491699
2022-08-23T07:40:01.796Z,66.662598
2022-08-23T07:41:11.420Z,65.258789
2022-08-23T07:42:23.197Z,64.129639
2022-08-23T07:43:28.721Z,63.531494
2022-08-23T07:44:39.371Z,63.934326
2022-08-23T07:45:49.022Z,65.130615
2022-08-23T07:46:58.667Z,65.496826
2022-08-23T07:48:08.382Z,65.06958
2022-08-23T07:49:18.986Z,63.439941
2022-08-23T07:50:27.877Z,62.445068
2022-08-23T07:51:37.293Z,62.115479
2022-08-23T07:52:46.959Z,62.640381
2022-08-23T07:53:56.618Z,63.311768
2022-08-23T07:55:06.967Z,62.585449
2022-08-23T07:56:15.065Z,62.854004
2022-08-23T07:57:23.734Z,61.627197
2022-08-23T07:58:32.403Z,59.338379
2022-08-23T07:59:41.122Z,58.740234
2022-08-23T08:00:48.809Z,59.637451
2022-08-23T08:01:56.518Z,59.234619
2022-08-23T08:03:06.220Z,60.03418
2022-08-23T08:04:14.772Z,59.509277
2022-08-23T08:05:23.414Z,58.709717
2022-08-23T08:06:33.117Z,58.612061
2022-08-23T08:07:41.804Z,58.044434
2022-08-23T08:08:50.477Z,60.03418
2022-08-23T08:10:00.150Z,59.008789
2022-08-23T08:11:09.788Z,60.003662
2022-08-23T08:12:18.480Z,57.91626
2022-08-23T08:13:26.134Z,57.617188
2022-08-23T08:14:36.282Z,57.348633
2022-08-23T08:15:44.467Z,58.642578
2022-08-23T08:16:53.104Z,58.068848
2022-08-23T08:18:02.110Z,58.47168
2022-08-23T08:19:11.525Z,58.294678
2022-08-23T08:20:22.272Z,58.47168
2022-08-23T08:21:29.843Z,58.044434
2022-08-23T08:22:38.494Z,57.641602
2022-08-23T08:23:49.183Z,57.147217
2022-08-23T08:24:58.825Z,57.873535
2022-08-23T08:26:07.493Z,57.745361
2022-08-23T08:27:16.154Z,57.940674
2022-08-23T08:28:25.855Z,57.244873
2022-08-23T08:29:35.537Z,57.714844
2022-08-23T08:30:43.189Z,57.293701
2022-08-23T08:31:54.388Z,56.170654
2022-08-23T08:33:02.570Z,57.830811
2022-08-23T08:34:11.146Z,55.023193
2022-08-23T08:35:20.841Z,54.925537
2022-08-23T08:36:29.507Z,56.414795
2022-08-23T08:37:39.164Z,55.548096
2022-08-23T08:38:51.189Z,54.821777
2022-08-23T08:39:59.470Z,56.414795
2022-08-23T08:41:07.116Z,55.889893
2022-08-23T08:42:17.718Z,55.24292
2022-08-23T08:43:26.482Z,54.846191
2022-08-23T08:44:36.148Z,52.734375
2022-08-23T08:45:44.830Z,53.527832
2022-08-23T08:46:55.513Z,52.337646
2022-08-23T08:48:05.180Z,52.539062
2022-08-23T08:49:15.810Z,52.862549
2022-08-23T08:50:23.457Z,53.381348
2022-08-23T08:51:33.132Z,53.509521
2022-08-23T08:52:41.856Z,53.759766
2022-08-23T08:53:50.540Z,56.268311
2022-08-23T08:54:59.206Z,55.004883
2022-08-23T08:56:07.852Z,56.195068
2022-08-23T08:57:18.496Z,55.303955
2022-08-23T08:58:29.156Z,56.121826
2022-08-23T08:59:37.828Z,56.622314
2022-08-23T09:00:47.472Z,56.396484
2022-08-23T09:01:57.166Z,56.738281
2022-08-23T09:03:06.881Z,54.425049
2022-08-23T09:04:15.473Z,53.582764
2022-08-23T09:05:24.134Z,52.661133
2022-08-23T09:06:33.792Z,52.23999
2022-08-23T09:07:42.443Z,52.215576
2022-08-23T09:08:51.090Z,51.794434
2022-08-23T09:10:00.788Z,50.830078
2022-08-23T09:11:10.445Z,51.721191
2022-08-23T09:12:20.126Z,52.020264
2022-08-23T09:13:28.781Z,52.587891
2022-08-23T09:14:38.417Z,53.381348
2022-08-23T09:15:47.095Z,53.747559
2022-08-23T09:16:54.726Z,52.539062
2022-08-23T09:18:03.469Z,51.153564
2022-08-23T09:19:13.058Z,51.324463
2022-08-23T09:20:22.707Z,50.036621
2022-08-23T09:21:32.518Z,50.708008
2022-08-23T09:22:42.210Z,48.925781
2022-08-23T09:23:57.085Z,48.925781
2022-08-23T09:25:02.493Z,48.730469
2022-08-23T09:26:12.146Z,50.091553
2022-08-23T09:27:19.791Z,47.027588
2022-08-23T09:28:29.474Z,48.901367
2022-08-23T09:29:38.132Z,48.21167
2022-08-23T09:30:46.796Z,48.803711
2022-08-23T09:31:56.434Z,49.694824
2022-08-23T09:33:05.099Z,49.475098
2022-08-23T09:34:14.753Z,49.743652
2022-08-23T09:35:23.435Z,49.249268
2022-08-23T09:36:32.073Z,48.956299
2022-08-23T09:37:41.753Z,48.657227
2022-08-23T09:38:50.640Z,47.747803
2022-08-23T09:40:00.336Z,48.535156
2022-08-23T09:41:08.963Z,49.328613
2022-08-23T09:42:17.601Z,49.224854
2022-08-23T09:43:27.284Z,48.413086
2022-08-23T09:44:35.965Z,48.712158
2022-08-23T09:45:44.616Z,48.809814
2022-08-23T09:46:53.286Z,46.856689
2022-08-23T09:48:02.166Z,48.162842
2022-08-23T09:49:11.584Z,49.816895
2022-08-23T09:50:21.317Z,49.053955
2022-08-23T09:51:29.988Z,49.328613
2022-08-23T09:52:40.642Z,50.115967
2022-08-23T09:53:50.305Z,47.650146
2022-08-23T09:54:58.973Z,49.224854
2022-08-23T09:56:08.652Z,48.712158
2022-08-23T09:57:17.302Z,47.503662
2022-08-23T09:58:26.992Z,46.30127
2022-08-23T09:59:35.655Z,46.002197
2022-08-23T10:00:44.314Z,46.691895
2022-08-23T10:01:54.062Z,45.928955
2022-08-23T10:03:01.762Z,44.885254
2022-08-23T10:04:10.406Z,47.247314
2022-08-23T10:05:19.995Z,48.33374
2022-08-23T10:06:30.929Z,48.583984
2022-08-23T10:07:40.434Z,47.10083
2022-08-23T10:08:48.977Z,47.003174
2022-08-23T10:09:58.643Z,47.790527
2022-08-23T10:11:07.275Z,46.807861
2022-08-23T10:12:15.932Z,47.003174
2022-08-23T10:13:26.680Z,48.779297
2022-08-23T10:14:36.349Z,47.375488
2022-08-23T10:15:45.065Z,46.368408
2022-08-23T10:16:54.668Z,48.022461
2022-08-23T10:18:04.322Z,46.31958
2022-08-23T10:19:13.024Z,45.904541
2022-08-23T10:20:21.691Z,45.727539
2022-08-23T10:21:30.337Z,46.618652
2022-08-23T10:22:40.992Z,48.7854
2022-08-23T10:23:49.658Z,45.507812
2022-08-23T10:24:57.445Z,46.990967
2022-08-23T10:26:07.091Z,46.569824
2022-08-23T10:27:15.781Z,47.65625
2022-08-23T10:28:24.436Z,46.966553
2022-08-23T10:29:33.092Z,44.995117
2022-08-23T10:30:41.796Z,46.990967
2022-08-23T10:31:50.421Z,44.506836
2022-08-23T10:32:59.084Z,45.410156
2022-08-23T10:34:06.723Z,46.002197
2022-08-23T10:35:16.451Z,46.374512
2022-08-23T10:36:25.115Z,45.092773
2022-08-23T10:37:34.780Z,44.232178
2022-08-23T10:38:44.417Z,44.921875
2022-08-23T10:39:54.091Z,44.818115
2022-08-23T10:41:04.695Z,44.152832
2022-08-23T10:42:13.459Z,45.3125
2022-08-23T10:43:23.101Z,44.604492
2022-08-23T10:44:32.781Z,43.713379
2022-08-23T10:45:41.412Z,43.713379
2022-08-23T10:46:50.164Z,44.995117
2022-08-23T10:47:58.781Z,44.30542
2022-08-23T10:49:08.418Z,44.525146
2022-08-23T10:50:18.132Z,45.611572
2022-08-23T10:51:31.438Z,45.214844
2022-08-23T10:52:35.388Z,45.117188
2022-08-23T10:53:45.175Z,45.214844
2022-08-23T10:54:54.825Z,44.921875
2022-08-23T10:56:03.505Z,45.214844
2022-08-23T10:57:13.175Z,44.195557
2022-08-23T10:58:21.820Z,45.422363
2022-08-23T10:59:32.500Z,46.551514
2022-08-23T11:00:40.159Z,48.730469
2022-08-23T11:01:47.886Z,47.399902
2022-08-23T11:02:57.536Z,46.484375
2022-08-23T11:04:06.170Z,45.776367
2022-08-23T11:05:15.878Z,44.372559
2022-08-23T11:06:24.569Z,44.274902
2022-08-23T11:07:32.229Z,42.578125
2022-08-23T11:08:45.601Z,45.257568
2022-08-23T11:09:52.625Z,45.159912
2022-08-23T11:11:01.301Z,45.532227
2022-08-23T11:12:11.220Z,43.267822
2022-08-23T11:13:19.605Z,43.780518
2022-08-23T11:14:28.271Z,44.177246
2022-08-23T11:15:36.960Z,43.463135
2022-08-23T11:16:46.612Z,41.986084
2022-08-23T11:17:57.365Z,43.365479
2022-08-23T11:19:06.924Z,43.09082
2022-08-23T11:20:16.613Z,44.445801
2022-08-23T11:21:26.278Z,42.06543
2022-08-23T11:22:34.946Z,43.463135
2022-08-23T11:23:43.605Z,42.260742
2022-08-23T11:24:52.298Z,43.170166
2022-08-23T11:26:00.973Z,43.737793
2022-08-23T11:27:10.652Z,43.145752
2022-08-23T11:28:20.445Z,43.145752
2022-08-23T11:29:29.090Z,44.403076
2022-08-23T11:30:38.811Z,43.127441
2022-08-23T11:31:48.423Z,42.926025
2022-08-23T11:32:57.082Z,42.810059
2022-08-23T11:34:05.757Z,41.625977
2022-08-23T11:35:14.399Z,39.776611
2022-08-23T11:36:24.078Z,38.494873
2022-08-23T11:37:31.715Z,39.855957
2022-08-23T11:38:41.391Z,40.563965
2022-08-23T11:39:51.139Z,41.040039
2022-08-23T11:40:59.723Z,39.953613
2022-08-23T11:42:09.381Z,38.757324
2022-08-23T11:43:18.079Z,39.147949
2022-08-23T11:44:26.759Z,38.739014
2022-08-23T11:45:37.544Z,38.873291
2022-08-23T11:46:46.197Z,41.625977
2022-08-23T11:47:54.856Z,40.252686
2022-08-23T11:49:04.553Z,40.332031
2022-08-23T11:50:13.248Z,39.129639
2022-08-23T11:51:21.951Z,39.624023
2022-08-23T11:52:30.615Z,41.882324
2022-08-23T11:53:39.292Z,40.606689
2022-08-23T11:54:48.960Z,40.405273
2022-08-23T11:55:57.654Z,40.032959
2022-08-23T11:57:05.326Z,41.113281
2022-08-23T11:58:15.023Z,41.217041
2022-08-23T11:59:23.793Z,39.520264
2022-08-23T12:00:32.417Z,39.147949
2022-08-23T12:01:41.086Z,37.774658
2022-08-23T12:02:49.867Z,38.067627
2022-08-23T12:03:59.593Z,37.872314
2022-08-23T12:05:09.149Z,37.06665
2022-08-23T12:06:18.829Z,37.341309
2022-08-23T12:07:27.490Z,38.995361
2022-08-23T12:08:35.167Z,36.14502
2022-08-23T12:09:44.869Z,35.882568
2022-08-23T12:10:54.519Z,37.475586
2022-08-23T12:12:03.175Z,38.812256
2022-08-23T12:13:12.479Z,40.686035
2022-08-23T12:14:21.533Z,39.794922
2022-08-23T12:15:30.203Z,38.793945
2022-08-23T12:16:44.347Z,39.367676
2022-08-23T12:17:50.471Z,39.581299
2022-08-23T12:19:00.192Z,39.147949
2022-08-23T12:20:09.503Z,40.332031
2022-08-23T12:21:19.508Z,39.031982
2022-08-23T12:22:27.151Z,38.818359
2022-08-23T12:23:35.827Z,38.208008
2022-08-23T12:24:44.511Z,37.420654
2022-08-23T12:25:53.176Z,37.420654
2022-08-23T12:27:00.830Z,37.127686
2022-08-23T12:28:10.505Z,36.322021
2022-08-23T12:29:19.175Z,36.126709
2022-08-23T12:30:26.874Z,35.754395
2022-08-23T12:31:36.596Z,37.896729
2022-08-23T12:32:45.271Z,38.171387
2022-08-23T12:33:54.930Z,36.505127
2022-08-23T12:35:03.582Z,37.817383
2022-08-23T12:36:13.661Z,37.835693
2022-08-23T12:37:22.888Z,37.615967
2022-08-23T12:38:31.594Z,37.719727
2022-08-23T12:39:40.279Z,37.701416
2022-08-23T12:40:47.920Z,39.447021
2022-08-23T12:41:57.577Z,37.799072
2022-08-23T12:43:07.279Z,37.286377
2022-08-23T12:44:15.937Z,36.853027
2022-08-23T12:45:23.593Z,36.853027
2022-08-23T12:46:32.350Z,37.322998
2022-08-23T12:47:43.034Z,38.031006
2022-08-23T12:48:49.761Z,38.476562
2022-08-23T12:49:58.423Z,39.068604
2022-08-23T12:51:07.085Z,37.652588
2022-08-23T12:52:16.739Z,37.322998
2022-08-23T12:53:24.399Z,38.092041
2022-08-23T12:54:32.143Z,39.642334
2022-08-23T12:55:41.824Z,38.659668
2022-08-23T12:56:50.478Z,39.642334
2022-08-23T12:58:00.136Z,40.509033
2022-08-23T12:59:07.793Z,38.739014
2022-08-23T13:00:18.415Z,38.134766
2022-08-23T13:01:29.961Z,38.641357
2022-08-23T13:02:37.239Z,39.508057
2022-08-23T13:03:45.418Z,38.623047
2022-08-23T13:04:55.098Z,38.409424
2022-08-23T13:06:03.743Z,37.744141
2022-08-23T13:07:13.388Z,39.4104
2022-08-23T13:08:27.432Z,38.916016
2022-08-23T13:09:31.644Z,38.134766
2022-08-23T13:10:41.330Z,38.214111